sensor_id;sensor_type;location;lat;lon;timestamp;P1;durP1;ratioP1;P2;durP2;ratioP2
61635;SDS011;59438;45.014;39.006;2022-07-09T00:00:31;17.83;;;6.20;;
61635;SDS011;59438;45.014;39.006;2022-07-09T00:02:58;16.17;;;5.88;;
61635;SDS011;59438;45.014;39.006;2022-07-09T00:05:24;10.77;;;6.50;;
61635;SDS011;59438;45.014;39.006;2022-07-09T00:07:51;11.98;;;5.93;;
61635;SDS011;59438;45.014;39.006;2022-07-09T00:10:18;12.88;;;6.10;;
61635;SDS011;59438;45.014;39.006;2022-07-09T00:12:45;10.32;;;6.10;;
61635;SDS011;59438;45.014;39.006;2022-07-09T00:15:11;11.15;;;6.35;;
61635;SDS011;59438;45.014;39.006;2022-07-09T00:17:38;11.35;;;5.85;;
61635;SDS011;59438;45.014;39.006;2022-07-09T00:20:05;9.20;;;6.03;;
61635;SDS011;59438;45.014;39.006;2022-07-09T00:22:32;12.60;;;6.38;;
61635;SDS011;59438;45.014;39.006;2022-07-09T00:24:58;9.27;;;6.40;;
61635;SDS011;59438;45.014;39.006;2022-07-09T00:27:27;14.88;;;6.63;;
61635;SDS011;59438;45.014;39.006;2022-07-09T00:29:53;11.05;;;6.05;;
61635;SDS011;59438;45.014;39.006;2022-07-09T00:32:20;13.40;;;6.07;;
61635;SDS011;59438;45.014;39.006;2022-07-09T00:34:46;8.40;;;5.70;;
61635;SDS011;59438;45.014;39.006;2022-07-09T00:37:12;10.88;;;6.18;;
61635;SDS011;59438;45.014;39.006;2022-07-09T00:39:39;8.63;;;5.70;;
61635;SDS011;59438;45.014;39.006;2022-07-09T00:42:05;10.07;;;6.20;;
61635;SDS011;59438;45.014;39.006;2022-07-09T00:44:34;10.27;;;5.43;;
61635;SDS011;59438;45.014;39.006;2022-07-09T00:47:01;9.55;;;6.10;;
61635;SDS011;59438;45.014;39.006;2022-07-09T00:49:29;8.77;;;5.70;;
61635;SDS011;59438;45.014;39.006;2022-07-09T00:51:56;11.38;;;6.00;;
61635;SDS011;59438;45.014;39.006;2022-07-09T00:54:23;14.77;;;5.80;;
61635;SDS011;59438;45.014;39.006;2022-07-09T00:56:50;12.95;;;5.72;;
61635;SDS011;59438;45.014;39.006;2022-07-09T00:59:18;12.20;;;5.55;;
61635;SDS011;59438;45.014;39.006;2022-07-09T01:01:46;12.02;;;5.80;;
61635;SDS011;59438;45.014;39.006;2022-07-09T01:04:14;15.38;;;5.47;;
61635;SDS011;59438;45.014;39.006;2022-07-09T01:06:41;8.93;;;5.68;;
61635;SDS011;59438;45.014;39.006;2022-07-09T01:09:07;9.10;;;5.43;;
61635;SDS011;59438;45.014;39.006;2022-07-09T01:11:35;17.02;;;6.30;;
61635;SDS011;59438;45.014;39.006;2022-07-09T01:14:01;10.43;;;5.85;;
61635;SDS011;59438;45.014;39.006;2022-07-09T01:16:30;9.32;;;5.35;;
61635;SDS011;59438;45.014;39.006;2022-07-09T01:18:58;9.43;;;5.63;;
61635;SDS011;59438;45.014;39.006;2022-07-09T01:21:26;11.25;;;5.00;;
61635;SDS011;59438;45.014;39.006;2022-07-09T01:23:52;15.52;;;5.40;;
61635;SDS011;59438;45.014;39.006;2022-07-09T01:26:19;8.25;;;5.22;;
61635;SDS011;59438;45.014;39.006;2022-07-09T01:28:46;5.90;;;4.93;;
61635;SDS011;59438;45.014;39.006;2022-07-09T01:31:12;9.27;;;5.10;;
61635;SDS011;59438;45.014;39.006;2022-07-09T01:33:39;9.20;;;4.82;;
61635;SDS011;59438;45.014;39.006;2022-07-09T01:36:06;6.88;;;4.53;;
61635;SDS011;59438;45.014;39.006;2022-07-09T01:38:34;6.35;;;4.60;;
61635;SDS011;59438;45.014;39.006;2022-07-09T01:41:01;10.80;;;4.65;;
61635;SDS011;59438;45.014;39.006;2022-07-09T01:43:28;12.40;;;5.15;;
61635;SDS011;59438;45.014;39.006;2022-07-09T01:45:54;10.02;;;4.65;;
61635;SDS011;59438;45.014;39.006;2022-07-09T01:48:20;6.95;;;4.50;;
61635;SDS011;59438;45.014;39.006;2022-07-09T01:50:47;8.18;;;4.65;;
61635;SDS011;59438;45.014;39.006;2022-07-09T01:53:13;7.35;;;4.57;;
61635;SDS011;59438;45.014;39.006;2022-07-09T01:55:41;9.30;;;4.35;;
61635;SDS011;59438;45.014;39.006;2022-07-09T01:58:07;7.53;;;4.50;;
61635;SDS011;59438;45.014;39.006;2022-07-09T02:00:33;8.63;;;4.60;;
61635;SDS011;59438;45.014;39.006;2022-07-09T02:03:00;7.00;;;5.15;;
61635;SDS011;59438;45.014;39.006;2022-07-09T02:05:26;12.05;;;5.05;;
61635;SDS011;59438;45.014;39.006;2022-07-09T02:07:52;12.65;;;4.82;;
61635;SDS011;59438;45.014;39.006;2022-07-09T02:10:19;12.02;;;4.75;;
61635;SDS011;59438;45.014;39.006;2022-07-09T02:12:47;6.68;;;4.43;;
61635;SDS011;59438;45.014;39.006;2022-07-09T02:15:13;8.70;;;4.40;;
61635;SDS011;59438;45.014;39.006;2022-07-09T02:17:40;6.85;;;4.68;;
61635;SDS011;59438;45.014;39.006;2022-07-09T02:22:53;7.93;;;4.47;;
61635;SDS011;59438;45.014;39.006;2022-07-09T02:25:20;6.70;;;4.57;;
61635;SDS011;59438;45.014;39.006;2022-07-09T02:27:47;9.15;;;4.55;;
61635;SDS011;59438;45.014;39.006;2022-07-09T02:33:17;8.02;;;4.93;;
61635;SDS011;59438;45.014;39.006;2022-07-09T02:35:43;9.13;;;4.88;;
61635;SDS011;59438;45.014;39.006;2022-07-09T02:41:12;10.40;;;4.75;;
61635;SDS011;59438;45.014;39.006;2022-07-09T02:43:40;11.07;;;4.93;;
61635;SDS011;59438;45.014;39.006;2022-07-09T02:46:07;10.60;;;4.93;;
61635;SDS011;59438;45.014;39.006;2022-07-09T02:48:33;12.15;;;4.78;;
61635;SDS011;59438;45.014;39.006;2022-07-09T02:50:59;13.25;;;5.10;;
61635;SDS011;59438;45.014;39.006;2022-07-09T02:53:26;9.27;;;5.15;;
61635;SDS011;59438;45.014;39.006;2022-07-09T02:55:52;13.90;;;4.97;;
61635;SDS011;59438;45.014;39.006;2022-07-09T02:58:19;9.00;;;4.60;;
61635;SDS011;59438;45.014;39.006;2022-07-09T03:00:46;7.97;;;4.25;;
61635;SDS011;59438;45.014;39.006;2022-07-09T03:03:13;10.27;;;5.05;;
61635;SDS011;59438;45.014;39.006;2022-07-09T03:05:39;10.73;;;5.07;;
61635;SDS011;59438;45.014;39.006;2022-07-09T03:08:06;9.63;;;5.05;;
61635;SDS011;59438;45.014;39.006;2022-07-09T03:10:32;13.13;;;4.97;;
61635;SDS011;59438;45.014;39.006;2022-07-09T03:12:58;10.23;;;4.60;;
61635;SDS011;59438;45.014;39.006;2022-07-09T03:15:25;8.52;;;4.38;;
61635;SDS011;59438;45.014;39.006;2022-07-09T03:17:52;10.50;;;4.30;;
61635;SDS011;59438;45.014;39.006;2022-07-09T03:20:19;10.27;;;4.43;;
61635;SDS011;59438;45.014;39.006;2022-07-09T03:22:45;9.27;;;4.75;;
61635;SDS011;59438;45.014;39.006;2022-07-09T03:25:12;10.52;;;4.60;;
61635;SDS011;59438;45.014;39.006;2022-07-09T03:27:38;7.00;;;4.25;;
61635;SDS011;59438;45.014;39.006;2022-07-09T03:30:05;9.13;;;4.82;;
61635;SDS011;59438;45.014;39.006;2022-07-09T03:32:32;10.52;;;4.57;;
61635;SDS011;59438;45.014;39.006;2022-07-09T03:35:00;12.57;;;4.68;;
61635;SDS011;59438;45.014;39.006;2022-07-09T03:37:26;7.78;;;4.10;;
61635;SDS011;59438;45.014;39.006;2022-07-09T03:39:53;8.50;;;4.60;;
61635;SDS011;59438;45.014;39.006;2022-07-09T03:42:19;8.13;;;4.70;;
61635;SDS011;59438;45.014;39.006;2022-07-09T03:44:45;11.50;;;4.88;;
61635;SDS011;59438;45.014;39.006;2022-07-09T03:47:12;13.98;;;4.50;;
61635;SDS011;59438;45.014;39.006;2022-07-09T03:49:38;13.10;;;4.65;;
61635;SDS011;59438;45.014;39.006;2022-07-09T03:52:06;9.88;;;4.57;;
61635;SDS011;59438;45.014;39.006;2022-07-09T03:54:33;10.98;;;4.35;;
61635;SDS011;59438;45.014;39.006;2022-07-09T03:56:59;8.38;;;4.38;;
61635;SDS011;59438;45.014;39.006;2022-07-09T03:59:26;8.63;;;4.68;;
61635;SDS011;59438;45.014;39.006;2022-07-09T04:01:52;7.78;;;4.72;;
61635;SDS011;59438;45.014;39.006;2022-07-09T04:04:18;13.70;;;4.85;;
61635;SDS011;59438;45.014;39.006;2022-07-09T04:06:45;9.38;;;4.40;;
61635;SDS011;59438;45.014;39.006;2022-07-09T04:09:12;6.20;;;4.22;;
61635;SDS011;59438;45.014;39.006;2022-07-09T04:11:39;10.82;;;4.50;;
61635;SDS011;59438;45.014;39.006;2022-07-09T04:14:05;8.57;;;4.57;;
61635;SDS011;59438;45.014;39.006;2022-07-09T04:16:31;11.35;;;4.78;;
61635;SDS011;59438;45.014;39.006;2022-07-09T04:18:58;5.65;;;4.00;;
61635;SDS011;59438;45.014;39.006;2022-07-09T04:21:24;7.55;;;4.13;;
61635;SDS011;59438;45.014;39.006;2022-07-09T04:23:51;9.00;;;4.20;;
61635;SDS011;59438;45.014;39.006;2022-07-09T04:26:19;7.53;;;4.22;;
61635;SDS011;59438;45.014;39.006;2022-07-09T04:28:45;11.30;;;4.82;;
61635;SDS011;59438;45.014;39.006;2022-07-09T04:31:12;8.88;;;4.60;;
61635;SDS011;59438;45.014;39.006;2022-07-09T04:33:38;8.77;;;4.93;;
61635;SDS011;59438;45.014;39.006;2022-07-09T04:36:05;10.73;;;4.55;;
61635;SDS011;59438;45.014;39.006;2022-07-09T04:38:32;10.48;;;4.25;;
61635;SDS011;59438;45.014;39.006;2022-07-09T04:40:58;7.60;;;4.00;;
61635;SDS011;59438;45.014;39.006;2022-07-09T04:43:26;6.25;;;4.60;;
61635;SDS011;59438;45.014;39.006;2022-07-09T04:45:52;8.98;;;4.05;;
61635;SDS011;59438;45.014;39.006;2022-07-09T04:48:18;10.65;;;4.28;;
61635;SDS011;59438;45.014;39.006;2022-07-09T04:50:45;8.63;;;3.63;;
61635;SDS011;59438;45.014;39.006;2022-07-09T04:53:11;11.38;;;4.28;;
61635;SDS011;59438;45.014;39.006;2022-07-09T04:55:37;17.00;;;4.70;;
61635;SDS011;59438;45.014;39.006;2022-07-09T04:58:04;6.43;;;3.92;;
61635;SDS011;59438;45.014;39.006;2022-07-09T05:00:32;5.75;;;3.40;;
61635;SDS011;59438;45.014;39.006;2022-07-09T05:02:58;6.68;;;3.63;;
61635;SDS011;59438;45.014;39.006;2022-07-09T05:05:25;6.43;;;3.40;;
61635;SDS011;59438;45.014;39.006;2022-07-09T05:07:51;8.70;;;3.80;;
61635;SDS011;59438;45.014;39.006;2022-07-09T05:10:17;8.82;;;3.78;;
61635;SDS011;59438;45.014;39.006;2022-07-09T05:12:44;8.43;;;3.60;;
61635;SDS011;59438;45.014;39.006;2022-07-09T05:15:10;5.65;;;3.72;;
61635;SDS011;59438;45.014;39.006;2022-07-09T05:17:39;10.95;;;4.00;;
61635;SDS011;59438;45.014;39.006;2022-07-09T05:20:06;7.72;;;3.63;;
61635;SDS011;59438;45.014;39.006;2022-07-09T05:22:34;7.57;;;3.50;;
61635;SDS011;59438;45.014;39.006;2022-07-09T05:25:02;7.97;;;3.80;;
61635;SDS011;59438;45.014;39.006;2022-07-09T05:27:29;7.22;;;4.03;;
61635;SDS011;59438;45.014;39.006;2022-07-09T05:29:56;8.13;;;4.20;;
61635;SDS011;59438;45.014;39.006;2022-07-09T05:32:22;7.95;;;4.25;;
61635;SDS011;59438;45.014;39.006;2022-07-09T05:34:50;6.22;;;3.70;;
61635;SDS011;59438;45.014;39.006;2022-07-09T05:37:17;9.15;;;3.70;;
61635;SDS011;59438;45.014;39.006;2022-07-09T05:39:43;10.07;;;3.75;;
61635;SDS011;59438;45.014;39.006;2022-07-09T05:42:09;9.75;;;3.60;;
61635;SDS011;59438;45.014;39.006;2022-07-09T05:44:36;6.78;;;3.30;;
61635;SDS011;59438;45.014;39.006;2022-07-09T05:47:02;6.82;;;3.53;;
61635;SDS011;59438;45.014;39.006;2022-07-09T05:49:29;7.60;;;3.83;;
61635;SDS011;59438;45.014;39.006;2022-07-09T05:51:57;6.15;;;3.72;;
61635;SDS011;59438;45.014;39.006;2022-07-09T05:54:23;7.03;;;3.67;;
61635;SDS011;59438;45.014;39.006;2022-07-09T05:56:49;6.53;;;3.50;;
61635;SDS011;59438;45.014;39.006;2022-07-09T05:59:16;7.40;;;3.72;;
61635;SDS011;59438;45.014;39.006;2022-07-09T06:01:42;9.88;;;3.65;;
61635;SDS011;59438;45.014;39.006;2022-07-09T06:04:08;9.27;;;3.92;;
61635;SDS011;59438;45.014;39.006;2022-07-09T06:06:35;5.80;;;3.75;;
61635;SDS011;59438;45.014;39.006;2022-07-09T06:09:03;8.30;;;3.90;;
61635;SDS011;59438;45.014;39.006;2022-07-09T06:11:29;8.45;;;3.90;;
61635;SDS011;59438;45.014;39.006;2022-07-09T06:13:55;7.25;;;3.75;;
61635;SDS011;59438;45.014;39.006;2022-07-09T06:16:22;5.85;;;3.45;;
61635;SDS011;59438;45.014;39.006;2022-07-09T06:18:48;6.35;;;3.80;;
61635;SDS011;59438;45.014;39.006;2022-07-09T06:21:14;12.57;;;4.10;;
61635;SDS011;59438;45.014;39.006;2022-07-09T06:23:41;7.25;;;3.33;;
61635;SDS011;59438;45.014;39.006;2022-07-09T06:26:08;9.77;;;3.78;;
61635;SDS011;59438;45.014;39.006;2022-07-09T06:28:35;9.95;;;3.58;;
61635;SDS011;59438;45.014;39.006;2022-07-09T06:31:02;18.98;;;4.10;;
61635;SDS011;59438;45.014;39.006;2022-07-09T06:33:29;6.93;;;3.63;;
61635;SDS011;59438;45.014;39.006;2022-07-09T06:35:55;17.88;;;4.10;;
61635;SDS011;59438;45.014;39.006;2022-07-09T06:38:21;10.63;;;3.78;;
61635;SDS011;59438;45.014;39.006;2022-07-09T06:40:48;7.35;;;3.83;;
61635;SDS011;59438;45.014;39.006;2022-07-09T06:43:15;5.90;;;3.63;;
61635;SDS011;59438;45.014;39.006;2022-07-09T06:45:42;6.45;;;3.85;;
61635;SDS011;59438;45.014;39.006;2022-07-09T06:48:08;6.28;;;3.80;;
61635;SDS011;59438;45.014;39.006;2022-07-09T06:50:34;13.93;;;4.00;;
61635;SDS011;59438;45.014;39.006;2022-07-09T06:53:01;6.40;;;3.67;;
61635;SDS011;59438;45.014;39.006;2022-07-09T06:55:27;4.60;;;3.28;;
61635;SDS011;59438;45.014;39.006;2022-07-09T06:57:53;4.60;;;3.35;;
61635;SDS011;59438;45.014;39.006;2022-07-09T07:00:21;5.78;;;3.47;;
61635;SDS011;59438;45.014;39.006;2022-07-09T07:02:48;6.22;;;3.45;;
61635;SDS011;59438;45.014;39.006;2022-07-09T07:05:14;5.60;;;3.65;;
61635;SDS011;59438;45.014;39.006;2022-07-09T07:07:40;8.43;;;3.60;;
61635;SDS011;59438;45.014;39.006;2022-07-09T07:10:07;7.13;;;3.58;;
61635;SDS011;59438;45.014;39.006;2022-07-09T07:12:34;6.28;;;3.38;;
61635;SDS011;59438;45.014;39.006;2022-07-09T07:15:00;5.47;;;3.30;;
61635;SDS011;59438;45.014;39.006;2022-07-09T07:17:28;13.45;;;3.55;;
61635;SDS011;59438;45.014;39.006;2022-07-09T07:19:54;8.73;;;3.22;;
61635;SDS011;59438;45.014;39.006;2022-07-09T07:22:21;6.85;;;3.38;;
61635;SDS011;59438;45.014;39.006;2022-07-09T07:24:47;4.28;;;3.15;;
61635;SDS011;59438;45.014;39.006;2022-07-09T07:27:13;7.13;;;3.42;;
61635;SDS011;59438;45.014;39.006;2022-07-09T07:29:40;3.30;;;3.00;;
61635;SDS011;59438;45.014;39.006;2022-07-09T07:32:07;7.47;;;3.33;;
61635;SDS011;59438;45.014;39.006;2022-07-09T07:34:35;4.63;;;3.13;;
61635;SDS011;59438;45.014;39.006;2022-07-09T07:37:02;5.00;;;3.45;;
61635;SDS011;59438;45.014;39.006;2022-07-09T07:39:28;6.32;;;3.28;;
61635;SDS011;59438;45.014;39.006;2022-07-09T07:41:55;5.78;;;3.40;;
61635;SDS011;59438;45.014;39.006;2022-07-09T07:44:21;10.85;;;3.55;;
61635;SDS011;59438;45.014;39.006;2022-07-09T07:46:48;6.78;;;3.28;;
61635;SDS011;59438;45.014;39.006;2022-07-09T07:49:14;7.63;;;3.20;;
61635;SDS011;59438;45.014;39.006;2022-07-09T07:51:42;5.57;;;3.40;;
61635;SDS011;59438;45.014;39.006;2022-07-09T07:54:08;6.22;;;3.25;;
61635;SDS011;59438;45.014;39.006;2022-07-09T07:56:35;7.85;;;3.13;;
61635;SDS011;59438;45.014;39.006;2022-07-09T07:59:01;7.68;;;3.30;;
61635;SDS011;59438;45.014;39.006;2022-07-09T08:01:28;4.72;;;3.34;;
61635;SDS011;59438;45.014;39.006;2022-07-09T08:03:54;7.85;;;3.10;;
61635;SDS011;59438;45.014;39.006;2022-07-09T08:06:20;4.85;;;3.20;;
61635;SDS011;59438;45.014;39.006;2022-07-09T08:08:48;10.05;;;3.67;;
61635;SDS011;59438;45.014;39.006;2022-07-09T08:11:15;6.15;;;3.33;;
61635;SDS011;59438;45.014;39.006;2022-07-09T08:13:41;9.50;;;3.38;;
61635;SDS011;59438;45.014;39.006;2022-07-09T08:16:08;7.22;;;3.08;;
61635;SDS011;59438;45.014;39.006;2022-07-09T08:18:34;8.70;;;3.15;;
61635;SDS011;59438;45.014;39.006;2022-07-09T08:21:00;4.78;;;3.00;;
61635;SDS011;59438;45.014;39.006;2022-07-09T08:23:27;7.38;;;3.38;;
61635;SDS011;59438;45.014;39.006;2022-07-09T08:25:55;5.40;;;3.20;;
61635;SDS011;59438;45.014;39.006;2022-07-09T08:28:21;7.63;;;2.92;;
61635;SDS011;59438;45.014;39.006;2022-07-09T08:30:47;9.55;;;3.50;;
61635;SDS011;59438;45.014;39.006;2022-07-09T08:33:14;8.07;;;6.43;;
61635;SDS011;59438;45.014;39.006;2022-07-09T08:35:40;8.43;;;3.78;;
61635;SDS011;59438;45.014;39.006;2022-07-09T08:38:07;8.90;;;3.33;;
61635;SDS011;59438;45.014;39.006;2022-07-09T08:40:33;8.00;;;3.55;;
61635;SDS011;59438;45.014;39.006;2022-07-09T08:43:02;7.18;;;3.40;;
61635;SDS011;59438;45.014;39.006;2022-07-09T08:45:29;7.63;;;3.20;;
61635;SDS011;59438;45.014;39.006;2022-07-09T08:47:56;8.15;;;3.20;;
61635;SDS011;59438;45.014;39.006;2022-07-09T08:50:22;6.03;;;2.95;;
61635;SDS011;59438;45.014;39.006;2022-07-09T08:52:50;9.88;;;3.00;;
61635;SDS011;59438;45.014;39.006;2022-07-09T08:55:18;10.25;;;3.22;;
61635;SDS011;59438;45.014;39.006;2022-07-09T08:57:45;9.32;;;3.50;;
61635;SDS011;59438;45.014;39.006;2022-07-09T09:00:13;8.18;;;3.15;;
61635;SDS011;59438;45.014;39.006;2022-07-09T09:02:39;7.43;;;3.10;;
61635;SDS011;59438;45.014;39.006;2022-07-09T09:05:07;12.25;;;2.97;;
61635;SDS011;59438;45.014;39.006;2022-07-09T09:07:35;4.32;;;2.90;;
61635;SDS011;59438;45.014;39.006;2022-07-09T09:10:01;8.73;;;3.08;;
61635;SDS011;59438;45.014;39.006;2022-07-09T09:12:28;10.13;;;3.03;;
61635;SDS011;59438;45.014;39.006;2022-07-09T09:14:54;15.68;;;3.53;;
61635;SDS011;59438;45.014;39.006;2022-07-09T09:17:23;9.38;;;3.28;;
61635;SDS011;59438;45.014;39.006;2022-07-09T09:19:49;7.47;;;3.17;;
61635;SDS011;59438;45.014;39.006;2022-07-09T09:22:15;8.05;;;2.85;;
61635;SDS011;59438;45.014;39.006;2022-07-09T09:24:43;8.43;;;3.17;;
61635;SDS011;59438;45.014;39.006;2022-07-09T09:27:14;9.27;;;3.00;;
61635;SDS011;59438;45.014;39.006;2022-07-09T09:29:48;11.30;;;3.30;;
61635;SDS011;59438;45.014;39.006;2022-07-09T09:32:18;6.78;;;3.17;;
61635;SDS011;59438;45.014;39.006;2022-07-09T09:34:49;11.60;;;3.20;;
61635;SDS011;59438;45.014;39.006;2022-07-09T09:37:24;15.38;;;3.10;;
61635;SDS011;59438;45.014;39.006;2022-07-09T09:39:51;9.77;;;3.60;;
61635;SDS011;59438;45.014;39.006;2022-07-09T09:42:18;7.75;;;3.53;;
61635;SDS011;59438;45.014;39.006;2022-07-09T09:44:44;8.18;;;3.20;;
61635;SDS011;59438;45.014;39.006;2022-07-09T09:47:14;9.88;;;3.70;;
61635;SDS011;59438;45.014;39.006;2022-07-09T09:49:45;8.95;;;3.20;;
61635;SDS011;59438;45.014;39.006;2022-07-09T09:52:15;11.48;;;3.47;;
61635;SDS011;59438;45.014;39.006;2022-07-09T09:54:44;9.80;;;3.47;;
61635;SDS011;59438;45.014;39.006;2022-07-09T09:57:11;6.57;;;3.28;;
61635;SDS011;59438;45.014;39.006;2022-07-09T09:59:38;7.07;;;3.72;;
61635;SDS011;59438;45.014;39.006;2022-07-09T10:02:05;6.00;;;3.05;;
61635;SDS011;59438;45.014;39.006;2022-07-09T10:04:32;6.22;;;3.30;;
61635;SDS011;59438;45.014;39.006;2022-07-09T10:07:01;8.70;;;3.40;;
61635;SDS011;59438;45.014;39.006;2022-07-09T10:09:29;7.95;;;3.40;;
61635;SDS011;59438;45.014;39.006;2022-07-09T10:11:55;6.00;;;3.25;;
61635;SDS011;59438;45.014;39.006;2022-07-09T10:14:29;7.68;;;3.20;;
61635;SDS011;59438;45.014;39.006;2022-07-09T10:16:56;7.53;;;3.55;;
61635;SDS011;59438;45.014;39.006;2022-07-09T10:19:34;9.82;;;3.17;;
61635;SDS011;59438;45.014;39.006;2022-07-09T10:22:00;8.70;;;3.90;;
61635;SDS011;59438;45.014;39.006;2022-07-09T10:24:29;11.23;;;3.63;;
61635;SDS011;59438;45.014;39.006;2022-07-09T10:27:03;8.25;;;3.30;;
61635;SDS011;59438;45.014;39.006;2022-07-09T10:29:30;13.07;;;3.90;;
61635;SDS011;59438;45.014;39.006;2022-07-09T10:31:57;6.80;;;3.50;;
61635;SDS011;59438;45.014;39.006;2022-07-09T10:34:37;8.13;;;3.60;;
61635;SDS011;59438;45.014;39.006;2022-07-09T10:37:10;10.43;;;3.60;;
61635;SDS011;59438;45.014;39.006;2022-07-09T10:39:38;11.15;;;3.85;;
61635;SDS011;59438;45.014;39.006;2022-07-09T10:42:05;9.63;;;3.80;;
61635;SDS011;59438;45.014;39.006;2022-07-09T10:44:36;7.32;;;3.88;;
61635;SDS011;59438;45.014;39.006;2022-07-09T10:47:03;8.63;;;3.80;;
61635;SDS011;59438;45.014;39.006;2022-07-09T10:49:30;7.75;;;3.60;;
61635;SDS011;59438;45.014;39.006;2022-07-09T10:51:59;6.55;;;3.70;;
61635;SDS011;59438;45.014;39.006;2022-07-09T10:54:25;9.57;;;3.60;;
61635;SDS011;59438;45.014;39.006;2022-07-09T10:56:53;7.43;;;3.60;;
61635;SDS011;59438;45.014;39.006;2022-07-09T10:59:20;12.05;;;4.10;;
61635;SDS011;59438;45.014;39.006;2022-07-09T11:01:46;7.38;;;3.60;;
61635;SDS011;59438;45.014;39.006;2022-07-09T11:04:23;9.27;;;3.50;;
61635;SDS011;59438;45.014;39.006;2022-07-09T11:06:53;11.93;;;3.70;;
61635;SDS011;59438;45.014;39.006;2022-07-09T11:09:19;12.40;;;4.10;;
61635;SDS011;59438;45.014;39.006;2022-07-09T11:11:46;11.90;;;3.97;;
61635;SDS011;59438;45.014;39.006;2022-07-09T11:14:14;8.00;;;4.13;;
61635;SDS011;59438;45.014;39.006;2022-07-09T11:16:40;9.48;;;3.97;;
61635;SDS011;59438;45.014;39.006;2022-07-09T11:19:13;7.28;;;4.00;;
61635;SDS011;59438;45.014;39.006;2022-07-09T11:21:40;5.45;;;3.70;;
61635;SDS011;59438;45.014;39.006;2022-07-09T11:24:12;10.05;;;3.72;;
61635;SDS011;59438;45.014;39.006;2022-07-09T11:26:39;8.68;;;3.70;;
61635;SDS011;59438;45.014;39.006;2022-07-09T11:29:06;8.82;;;4.05;;
61635;SDS011;59438;45.014;39.006;2022-07-09T11:31:34;11.00;;;4.10;;
61635;SDS011;59438;45.014;39.006;2022-07-09T11:34:01;12.27;;;3.95;;
61635;SDS011;59438;45.014;39.006;2022-07-09T11:36:35;12.18;;;4.10;;
61635;SDS011;59438;45.014;39.006;2022-07-09T11:39:01;13.57;;;5.10;;
61635;SDS011;59438;45.014;39.006;2022-07-09T11:41:28;17.00;;;4.97;;
61635;SDS011;59438;45.014;39.006;2022-07-09T11:44:05;11.80;;;3.88;;
61635;SDS011;59438;45.014;39.006;2022-07-09T11:46:32;28.85;;;4.18;;
61635;SDS011;59438;45.014;39.006;2022-07-09T11:49:00;8.52;;;3.80;;
61635;SDS011;59438;45.014;39.006;2022-07-09T11:51:27;11.27;;;3.53;;
61635;SDS011;59438;45.014;39.006;2022-07-09T11:53:54;22.63;;;4.15;;
61635;SDS011;59438;45.014;39.006;2022-07-09T11:56:20;6.95;;;3.60;;
61635;SDS011;59438;45.014;39.006;2022-07-09T11:58:48;10.50;;;4.25;;
61635;SDS011;59438;45.014;39.006;2022-07-09T12:01:15;6.15;;;3.47;;
61635;SDS011;59438;45.014;39.006;2022-07-09T12:03:46;10.48;;;3.63;;
61635;SDS011;59438;45.014;39.006;2022-07-09T12:06:15;10.85;;;4.00;;
61635;SDS011;59438;45.014;39.006;2022-07-09T12:08:41;9.13;;;3.65;;
61635;SDS011;59438;45.014;39.006;2022-07-09T12:11:08;7.00;;;3.70;;
61635;SDS011;59438;45.014;39.006;2022-07-09T12:13:34;8.65;;;3.45;;
61635;SDS011;59438;45.014;39.006;2022-07-09T12:16:00;8.48;;;3.25;;
61635;SDS011;59438;45.014;39.006;2022-07-09T12:18:27;8.18;;;3.50;;
61635;SDS011;59438;45.014;39.006;2022-07-09T12:20:53;5.68;;;3.58;;
61635;SDS011;59438;45.014;39.006;2022-07-09T12:23:21;11.00;;;3.28;;
61635;SDS011;59438;45.014;39.006;2022-07-09T12:25:48;8.13;;;3.60;;
61635;SDS011;59438;45.014;39.006;2022-07-09T12:28:14;7.65;;;3.35;;
61635;SDS011;59438;45.014;39.006;2022-07-09T12:30:40;8.82;;;3.70;;
61635;SDS011;59438;45.014;39.006;2022-07-09T12:33:07;11.77;;;6.80;;
61635;SDS011;59438;45.014;39.006;2022-07-09T12:35:33;10.68;;;4.70;;
61635;SDS011;59438;45.014;39.006;2022-07-09T12:37:59;11.00;;;4.40;;
61635;SDS011;59438;45.014;39.006;2022-07-09T12:40:27;9.90;;;4.20;;
61635;SDS011;59438;45.014;39.006;2022-07-09T12:42:54;10.55;;;4.70;;
61635;SDS011;59438;45.014;39.006;2022-07-09T12:45:20;8.38;;;4.25;;
61635;SDS011;59438;45.014;39.006;2022-07-09T12:47:47;11.68;;;4.03;;
61635;SDS011;59438;45.014;39.006;2022-07-09T12:50:13;8.50;;;4.00;;
61635;SDS011;59438;45.014;39.006;2022-07-09T12:52:39;10.85;;;3.95;;
61635;SDS011;59438;45.014;39.006;2022-07-09T12:55:06;7.03;;;3.80;;
61635;SDS011;59438;45.014;39.006;2022-07-09T12:57:35;9.25;;;3.53;;
61635;SDS011;59438;45.014;39.006;2022-07-09T13:00:02;9.50;;;3.60;;
61635;SDS011;59438;45.014;39.006;2022-07-09T13:02:29;7.20;;;3.25;;
61635;SDS011;59438;45.014;39.006;2022-07-09T13:04:55;7.75;;;3.47;;
61635;SDS011;59438;45.014;39.006;2022-07-09T13:07:22;5.85;;;3.17;;
61635;SDS011;59438;45.014;39.006;2022-07-09T13:09:48;14.35;;;4.50;;
61635;SDS011;59438;45.014;39.006;2022-07-09T13:12:14;6.93;;;4.03;;
61635;SDS011;59438;45.014;39.006;2022-07-09T13:14:42;5.30;;;3.80;;
61635;SDS011;59438;45.014;39.006;2022-07-09T13:17:09;8.32;;;4.20;;
61635;SDS011;59438;45.014;39.006;2022-07-09T13:19:35;9.07;;;4.55;;
61635;SDS011;59438;45.014;39.006;2022-07-09T13:25:24;7.88;;;4.72;;
61635;SDS011;59438;45.014;39.006;2022-07-09T13:27:51;8.95;;;4.63;;
61635;SDS011;59438;45.014;39.006;2022-07-09T13:30:19;12.13;;;3.85;;
61635;SDS011;59438;45.014;39.006;2022-07-09T13:32:45;8.65;;;3.70;;
61635;SDS011;59438;45.014;39.006;2022-07-09T13:35:11;4.97;;;3.40;;
61635;SDS011;59438;45.014;39.006;2022-07-09T13:37:38;5.90;;;3.58;;
61635;SDS011;59438;45.014;39.006;2022-07-09T13:40:05;8.30;;;3.90;;
61635;SDS011;59438;45.014;39.006;2022-07-09T13:42:32;20.08;;;5.13;;
61635;SDS011;59438;45.014;39.006;2022-07-09T13:44:58;7.32;;;4.20;;
61635;SDS011;59438;45.014;39.006;2022-07-09T13:47:26;8.07;;;4.53;;
61635;SDS011;59438;45.014;39.006;2022-07-09T13:49:52;10.80;;;5.00;;
61635;SDS011;59438;45.014;39.006;2022-07-09T13:52:19;6.10;;;3.92;;
61635;SDS011;59438;45.014;39.006;2022-07-09T13:54:45;8.80;;;3.97;;
61635;SDS011;59438;45.014;39.006;2022-07-09T13:57:11;18.42;;;4.30;;
61635;SDS011;59438;45.014;39.006;2022-07-09T13:59:38;32.65;;;5.00;;
61635;SDS011;59438;45.014;39.006;2022-07-09T14:02:04;30.73;;;4.90;;
61635;SDS011;59438;45.014;39.006;2022-07-09T14:04:32;18.75;;;4.75;;
61635;SDS011;59438;45.014;39.006;2022-07-09T14:06:58;18.75;;;4.78;;
61635;SDS011;59438;45.014;39.006;2022-07-09T14:09:25;5.22;;;3.20;;
61635;SDS011;59438;45.014;39.006;2022-07-09T14:11:51;13.85;;;4.30;;
61635;SDS011;59438;45.014;39.006;2022-07-09T14:14:17;12.93;;;4.22;;
61635;SDS011;59438;45.014;39.006;2022-07-09T14:16:44;7.72;;;4.35;;
61635;SDS011;59438;45.014;39.006;2022-07-09T14:19:10;9.68;;;4.00;;
61635;SDS011;59438;45.014;39.006;2022-07-09T14:21:38;15.55;;;3.70;;
61635;SDS011;59438;45.014;39.006;2022-07-09T14:24:04;11.68;;;3.60;;
61635;SDS011;59438;45.014;39.006;2022-07-09T14:26:31;12.02;;;5.50;;
61635;SDS011;59438;45.014;39.006;2022-07-09T14:28:57;9.38;;;4.50;;
61635;SDS011;59438;45.014;39.006;2022-07-09T14:31:23;7.60;;;3.47;;
61635;SDS011;59438;45.014;39.006;2022-07-09T14:33:50;7.68;;;3.55;;
61635;SDS011;59438;45.014;39.006;2022-07-09T14:36:16;5.72;;;3.10;;
61635;SDS011;59438;45.014;39.006;2022-07-09T14:38:44;15.00;;;3.80;;
61635;SDS011;59438;45.014;39.006;2022-07-09T14:41:10;9.60;;;4.38;;